Chestnut Mound, Tennessee
Current Conditions -  °F | °C
As of 10:15 AM on Monday 24 Nov 2014 (Local Time) from KSRB Reporting Station
Few Clouds Few Clouds  
Wind Chill: 64°   Ceiling: Unl
Heat Index: 64°   Visibility: 10mi
Dew Point: 48°   Wind: 21mph
Humidity: 56%   Direction: 240°WSW
Pressure: 29.71"   Gusts: 29mph
Location:  36.2°N, 85.83°W
Report Text: KSRB 241615Z AUTO 24018G25KT 10SM FEW050 18/09 A2971 RMK
Loading
Personal Weather Stations






























Interactive Weather Map New forecast layout! Learn more

10-Day Weather Forecast

Advertisements
Track Severe Weather on mobile